createdAt,value
2017-07-08T00:00:17.922Z,0
2017-07-08T00:01:28.218Z,0
2017-07-08T00:02:38.743Z,0
2017-07-08T00:03:49.042Z,0
2017-07-08T00:04:59.324Z,0
2017-07-08T00:06:09.589Z,0
2017-07-08T00:07:19.866Z,0
2017-07-08T00:08:30.466Z,0
2017-07-08T00:09:40.404Z,0
2017-07-08T00:10:50.046Z,0
2017-07-08T00:12:00.013Z,0
2017-07-08T00:13:09.978Z,0
2017-07-08T00:14:20.504Z,0
2017-07-08T00:15:30.773Z,0
2017-07-08T00:16:40.452Z,0
2017-07-08T00:17:50.707Z,0
2017-07-08T00:19:00.981Z,0
2017-07-08T00:20:11.511Z,0
2017-07-08T00:21:21.462Z,0
2017-07-08T00:22:31.722Z,0
2017-07-08T00:23:41.983Z,0
2017-07-08T00:24:51.942Z,0
2017-07-08T00:26:02.479Z,0
2017-07-08T00:27:12.781Z,0
2017-07-08T00:28:23.066Z,0
2017-07-08T00:29:33.389Z,0
2017-07-08T00:30:43.656Z,0
2017-07-08T00:31:54.185Z,0
2017-07-08T00:33:04.153Z,0
2017-07-08T00:34:13.799Z,0
2017-07-08T00:35:23.757Z,0
2017-07-08T00:36:34.021Z,0
2017-07-08T00:37:44.217Z,0
2017-07-08T00:38:54.483Z,0
2017-07-08T00:40:04.448Z,0
2017-07-08T00:41:14.394Z,0
2017-07-08T00:42:24.670Z,0
2017-07-08T00:43:35.241Z,0
2017-07-08T00:44:45.211Z,0
2017-07-08T00:45:55.483Z,0
2017-07-08T00:47:05.112Z,0
2017-07-08T00:48:15.063Z,0
2017-07-08T00:49:25.637Z,0
2017-07-08T00:50:35.588Z,0
2017-07-08T00:51:45.549Z,0
2017-07-08T00:52:55.811Z,0
2017-07-08T00:54:06.078Z,0
2017-07-08T00:55:16.635Z,0
2017-07-08T00:56:26.921Z,0
2017-07-08T00:57:37.184Z,0
2017-07-08T00:58:47.450Z,0
2017-07-08T00:59:57.400Z,0
2017-07-08T01:01:07.294Z,0
2017-07-08T01:02:17.573Z,0
2017-07-08T01:03:27.829Z,0
2017-07-08T01:04:38.086Z,0
2017-07-08T01:05:48.337Z,0
2017-07-08T01:06:58.918Z,0
2017-07-08T01:08:08.852Z,0
2017-07-08T01:09:18.822Z,0
2017-07-08T01:10:29.094Z,0
2017-07-08T01:11:39.366Z,0
2017-07-08T01:12:49.994Z,0
2017-07-08T01:14:00.250Z,0
2017-07-08T01:15:10.514Z,0
2017-07-08T01:16:20.794Z,0
2017-07-08T01:17:30.737Z,0
2017-07-08T01:18:40.957Z,0
2017-07-08T01:19:51.235Z,0
2017-07-08T01:21:01.517Z,0
2017-07-08T01:22:11.780Z,0
2017-07-08T01:23:22.020Z,0
2017-07-08T01:24:32.590Z,0
2017-07-08T01:25:42.539Z,0
2017-07-08T01:26:52.479Z,0
2017-07-08T01:28:02.742Z,0
2017-07-08T01:29:13.014Z,0
2017-07-08T01:30:23.582Z,0
2017-07-08T01:31:33.215Z,0
2017-07-08T01:32:43.469Z,0
2017-07-08T01:33:53.415Z,0
2017-07-08T01:35:03.701Z,0
2017-07-08T01:36:14.262Z,0
2017-07-08T01:37:24.201Z,0
2017-07-08T01:38:34.152Z,0
2017-07-08T01:39:44.417Z,0
2017-07-08T01:40:54.677Z,0
2017-07-08T01:42:04.936Z,0
2017-07-08T01:43:15.192Z,0
2017-07-08T01:44:25.464Z,0
2017-07-08T01:45:35.734Z,0
2017-07-08T01:46:46.001Z,0
2017-07-08T01:47:56.263Z,0
2017-07-08T01:49:06.535Z,0
2017-07-08T01:50:16.182Z,0
2017-07-08T01:51:26.442Z,0
2017-07-08T01:52:36.713Z,0
2017-07-08T01:53:46.969Z,0
2017-07-08T01:54:56.929Z,0
2017-07-08T01:56:07.209Z,0
2017-07-08T01:57:17.482Z,0
2017-07-08T01:58:27.754Z,0
2017-07-08T01:59:38.330Z,0
2017-07-08T02:00:48.596Z,0
2017-07-08T02:01:58.860Z,0
2017-07-08T02:03:08.814Z,0
2017-07-08T02:04:18.471Z,0
2017-07-08T02:05:28.677Z,0
2017-07-08T02:06:38.640Z,0
2017-07-08T02:07:48.929Z,0
2017-07-08T02:08:58.880Z,0
2017-07-08T02:10:09.152Z,4
2017-07-08T02:11:19.732Z,4
2017-07-08T02:12:30.012Z,4
2017-07-08T02:13:39.952Z,4
2017-07-08T02:14:50.225Z,4
2017-07-08T02:16:00.569Z,4
2017-07-08T02:17:11.068Z,8
2017-07-08T02:18:21.354Z,4
2017-07-08T02:19:31.621Z,8
2017-07-08T02:20:41.887Z,12
2017-07-08T02:21:52.157Z,12
2017-07-08T02:23:02.717Z,12
2017-07-08T02:24:12.978Z,12
2017-07-08T02:25:23.242Z,20
2017-07-08T02:26:32.903Z,20
2017-07-08T02:27:43.166Z,20
2017-07-08T02:28:53.697Z,24
2017-07-08T02:30:03.957Z,28
2017-07-08T02:31:14.238Z,32
2017-07-08T02:32:24.505Z,36
2017-07-08T02:33:34.750Z,44
2017-07-08T02:34:44.649Z,52
2017-07-08T02:35:54.922Z,56
2017-07-08T02:37:04.866Z,64
2017-07-08T02:38:15.372Z,72
2017-07-08T02:39:25.634Z,76
2017-07-08T02:40:36.217Z,92
2017-07-08T02:41:46.478Z,100
2017-07-08T02:42:56.753Z,108
2017-07-08T02:44:07.024Z,124
2017-07-08T02:45:17.299Z,136
2017-07-08T02:46:27.867Z,152
2017-07-08T02:47:37.814Z,168
2017-07-08T02:48:48.083Z,180
2017-07-08T02:49:58.335Z,200
2017-07-08T02:51:08.297Z,220
2017-07-08T02:52:18.879Z,240
2017-07-08T02:53:29.157Z,260
2017-07-08T02:54:39.426Z,284
2017-07-08T02:55:49.715Z,308
2017-07-08T02:56:59.992Z,332
2017-07-08T02:58:10.553Z,360
2017-07-08T02:59:20.818Z,384
2017-07-08T03:00:31.136Z,412
2017-07-08T03:01:41.403Z,436
2017-07-08T03:02:51.358Z,464
2017-07-08T03:04:01.614Z,492
2017-07-08T03:05:11.565Z,516
2017-07-08T03:06:21.858Z,544
2017-07-08T03:07:32.115Z,576
2017-07-08T03:08:42.383Z,608
2017-07-08T03:09:52.589Z,644
2017-07-08T03:11:02.857Z,688
2017-07-08T03:12:12.806Z,740
2017-07-08T03:13:23.081Z,784
2017-07-08T03:14:33.021Z,820
2017-07-08T03:15:43.547Z,848
2017-07-08T03:16:53.827Z,888
2017-07-08T03:18:03.784Z,944
2017-07-08T03:19:13.746Z,1004
2017-07-08T03:20:24.035Z,1052
2017-07-08T03:21:34.611Z,1072
2017-07-08T03:22:44.250Z,1104
2017-07-08T03:23:54.523Z,1124
2017-07-08T03:25:04.785Z,1128
2017-07-08T03:26:14.421Z,1112
2017-07-08T03:27:24.947Z,1104
2017-07-08T03:28:35.219Z,1100
2017-07-08T03:29:45.483Z,1080
2017-07-08T03:30:55.755Z,1048
2017-07-08T03:32:06.047Z,992
2017-07-08T03:33:16.613Z,936
2017-07-08T03:34:26.884Z,852
2017-07-08T03:35:37.140Z,800
2017-07-08T03:36:47.407Z,792
2017-07-08T03:37:57.358Z,812
2017-07-08T03:39:07.997Z,884
2017-07-08T03:40:17.950Z,960
2017-07-08T03:41:28.210Z,1060
2017-07-08T03:42:38.159Z,1136
2017-07-08T03:43:48.433Z,1176
2017-07-08T03:44:58.951Z,1268
2017-07-08T03:46:09.217Z,1284
2017-07-08T03:47:19.491Z,1348
2017-07-08T03:48:29.449Z,1332
2017-07-08T03:49:39.725Z,1260
2017-07-08T03:50:50.303Z,1240
2017-07-08T03:52:00.246Z,1316
2017-07-08T03:53:10.204Z,1520
2017-07-08T03:54:20.467Z,1816
2017-07-08T03:55:30.733Z,2172
2017-07-08T03:56:41.310Z,2420
2017-07-08T03:57:51.561Z,2564
2017-07-08T03:59:01.835Z,2816
2017-07-08T04:00:12.110Z,3088
2017-07-08T04:01:22.357Z,3400
2017-07-08T04:02:32.616Z,3668
2017-07-08T04:03:42.883Z,3924
2017-07-08T04:04:53.161Z,4124
2017-07-08T04:06:03.427Z,4260
2017-07-08T04:07:13.704Z,4272
2017-07-08T04:08:24.226Z,4196
2017-07-08T04:09:34.508Z,4168
2017-07-08T04:10:44.458Z,4056
2017-07-08T04:11:54.414Z,4180
2017-07-08T04:13:04.380Z,4468
2017-07-08T04:14:14.585Z,4916
2017-07-08T04:15:24.545Z,5060
2017-07-08T04:16:34.480Z,5016
2017-07-08T04:17:44.488Z,5008
2017-07-08T04:18:54.445Z,5028
2017-07-08T04:20:04.703Z,5088
2017-07-08T04:21:14.965Z,5208
2017-07-08T04:22:25.229Z,5372
2017-07-08T04:23:35.516Z,5456
2017-07-08T04:24:45.850Z,5508
2017-07-08T04:25:56.423Z,5540
2017-07-08T04:27:06.704Z,5616
2017-07-08T04:28:16.648Z,5692
2017-07-08T04:29:26.654Z,5772
2017-07-08T04:30:36.929Z,5700
2017-07-08T04:31:47.502Z,5700
2017-07-08T04:32:57.456Z,5740
2017-07-08T04:34:07.404Z,5808
2017-07-08T04:35:17.710Z,6000
2017-07-08T04:36:27.977Z,6208
2017-07-08T04:37:37.915Z,6588
2017-07-08T04:38:48.235Z,7272
2017-07-08T04:39:58.515Z,7944
2017-07-08T04:41:08.788Z,8496
2017-07-08T04:42:19.057Z,8696
2017-07-08T04:43:28.956Z,8628
2017-07-08T04:44:39.215Z,8680
2017-07-08T04:45:49.486Z,8868
2017-07-08T04:46:59.760Z,9168
2017-07-08T04:48:10.031Z,9400
2017-07-08T04:49:20.554Z,9444
2017-07-08T04:50:30.838Z,9560
2017-07-08T04:51:41.116Z,9524
2017-07-08T04:52:51.066Z,9496
2017-07-08T04:54:01.014Z,9480
2017-07-08T04:55:11.590Z,9516
2017-07-08T04:56:21.860Z,9520
2017-07-08T04:57:31.814Z,9356
2017-07-08T04:58:42.084Z,9200
2017-07-08T04:59:52.038Z,9116
2017-07-08T05:01:02.255Z,9144
2017-07-08T05:02:12.522Z,9060
2017-07-08T05:03:22.783Z,8896
2017-07-08T05:04:33.220Z,8844
2017-07-08T05:05:43.174Z,8932
2017-07-08T05:06:53.066Z,8988
2017-07-08T05:08:03.322Z,9108
2017-07-08T05:09:13.575Z,9196
2017-07-08T05:10:23.843Z,9280
2017-07-08T05:11:33.804Z,9344
2017-07-08T05:12:44.314Z,9380
2017-07-08T05:13:54.288Z,9596
2017-07-08T05:15:04.247Z,9696
2017-07-08T05:16:14.529Z,10136
2017-07-08T05:17:24.884Z,10060
2017-07-08T05:18:35.084Z,9772
2017-07-08T05:19:45.368Z,10228
2017-07-08T05:20:55.672Z,10632
2017-07-08T05:22:05.614Z,11588
2017-07-08T05:23:15.566Z,12404
2017-07-08T05:24:26.073Z,13092
2017-07-08T05:25:36.337Z,13912
2017-07-08T05:26:46.590Z,15132
2017-07-08T05:27:56.917Z,15324
2017-07-08T05:29:06.875Z,14988
2017-07-08T05:30:17.460Z,14444
2017-07-08T05:31:27.718Z,14748
2017-07-08T05:32:38.003Z,15444
2017-07-08T05:33:48.269Z,16112
2017-07-08T05:34:58.212Z,17504
2017-07-08T05:36:08.791Z,17568
2017-07-08T05:37:19.060Z,17760
2017-07-08T05:38:29.322Z,16624
2017-07-08T05:39:39.600Z,15996
2017-07-08T05:40:49.559Z,15984
2017-07-08T05:42:00.098Z,15960
2017-07-08T05:43:10.370Z,16296
2017-07-08T05:44:20.632Z,16848
2017-07-08T05:45:30.906Z,17444
2017-07-08T05:46:41.175Z,18048
2017-07-08T05:47:51.750Z,18496
2017-07-08T05:49:02.033Z,19008
2017-07-08T05:50:12.316Z,19232
2017-07-08T05:51:22.576Z,19200
2017-07-08T05:52:32.833Z,18784
2017-07-08T05:53:43.041Z,18496
2017-07-08T05:54:53.312Z,17216
2017-07-08T05:56:03.266Z,16644
2017-07-08T05:57:13.212Z,16464
2017-07-08T05:58:23.154Z,16484
2017-07-08T05:59:33.363Z,16412
2017-07-08T06:00:43.629Z,16360
2017-07-08T06:01:53.592Z,16368
2017-07-08T06:03:03.863Z,16468
2017-07-08T06:04:14.128Z,16444
2017-07-08T06:05:24.650Z,16152
2017-07-08T06:06:34.918Z,15964
2017-07-08T06:07:45.185Z,16020
2017-07-08T06:08:55.453Z,16140
2017-07-08T06:10:05.726Z,17008
2017-07-08T06:11:15.930Z,17952
2017-07-08T06:12:25.932Z,18336
2017-07-08T06:13:36.195Z,18272
2017-07-08T06:14:46.518Z,17952
2017-07-08T06:15:56.464Z,16964
2017-07-08T06:17:06.983Z,16272
2017-07-08T06:18:17.250Z,15324
2017-07-08T06:19:27.521Z,14616
2017-07-08T06:20:37.479Z,14164
2017-07-08T06:21:47.755Z,13816
2017-07-08T06:22:57.954Z,13692
2017-07-08T06:24:08.207Z,13952
2017-07-08T06:25:18.149Z,14568
2017-07-08T06:26:28.416Z,15548
2017-07-08T06:27:38.684Z,16780
2017-07-08T06:28:49.199Z,18048
2017-07-08T06:29:59.462Z,18048
2017-07-08T06:31:09.413Z,17024
2017-07-08T06:32:19.375Z,16576
2017-07-08T06:33:29.000Z,16616
2017-07-08T06:34:39.535Z,16660
2017-07-08T06:35:49.808Z,16584
2017-07-08T06:37:00.093Z,16272
2017-07-08T06:38:09.720Z,16312
2017-07-08T06:39:19.748Z,16540
2017-07-08T06:40:29.962Z,16956
2017-07-08T06:41:39.925Z,17472
2017-07-08T06:42:50.295Z,17792
2017-07-08T06:44:00.588Z,18112
2017-07-08T06:45:10.856Z,18528
2017-07-08T06:46:21.380Z,19104
2017-07-08T06:47:31.643Z,19392
2017-07-08T06:48:41.915Z,19104
2017-07-08T06:49:52.192Z,18560
2017-07-08T06:51:02.470Z,17952
2017-07-08T06:52:12.044Z,17536
2017-07-08T06:53:22.314Z,17664
2017-07-08T06:54:32.571Z,17888
2017-07-08T06:55:42.852Z,17984
2017-07-08T06:56:52.798Z,17792
2017-07-08T06:58:03.317Z,17824
2017-07-08T06:59:13.606Z,17856
2017-07-08T07:00:23.556Z,17792
2017-07-08T07:01:33.512Z,17792
2017-07-08T07:02:43.779Z,17696
2017-07-08T07:03:54.287Z,17888
2017-07-08T07:05:04.617Z,17888
2017-07-08T07:06:14.888Z,17760
2017-07-08T07:07:25.154Z,17020
2017-07-08T07:08:35.420Z,16608
2017-07-08T07:09:45.625Z,16268
2017-07-08T07:10:55.899Z,16108
2017-07-08T07:12:06.168Z,15960
2017-07-08T07:13:16.466Z,15964
2017-07-08T07:14:26.729Z,16060
2017-07-08T07:15:37.262Z,16104
2017-07-08T07:16:47.542Z,16052
2017-07-08T07:17:57.496Z,16040
2017-07-08T07:19:07.762Z,16152
2017-07-08T07:20:18.040Z,16452
2017-07-08T07:21:28.574Z,16544
2017-07-08T07:22:38.851Z,16672
2017-07-08T07:23:48.802Z,17408
2017-07-08T07:24:59.059Z,18048
2017-07-08T07:26:08.701Z,18688
2017-07-08T07:27:19.211Z,19072
2017-07-08T07:28:29.156Z,19168
2017-07-08T07:29:39.476Z,18816
2017-07-08T07:30:49.741Z,18624
2017-07-08T07:31:59.744Z,18336
2017-07-08T07:33:10.270Z,17664
2017-07-08T07:34:20.229Z,16844
2017-07-08T07:35:30.507Z,16432
2017-07-08T07:36:40.761Z,16464
2017-07-08T07:37:50.707Z,16812
2017-07-08T07:39:01.226Z,17312
2017-07-08T07:40:11.497Z,17408
2017-07-08T07:41:21.771Z,17312
2017-07-08T07:42:31.743Z,16992
2017-07-08T07:43:42.026Z,17376
2017-07-08T07:44:52.254Z,18080
2017-07-08T07:46:02.535Z,18880
2017-07-08T07:47:12.798Z,19520
2017-07-08T07:48:23.068Z,20000
2017-07-08T07:49:33.348Z,20320
2017-07-08T07:50:43.882Z,20480
2017-07-08T07:51:54.156Z,20608
2017-07-08T07:53:04.424Z,20832
2017-07-08T07:54:14.716Z,21024
2017-07-08T07:55:25.014Z,20992
2017-07-08T07:56:35.522Z,20896
2017-07-08T07:57:45.185Z,21024
2017-07-08T07:58:55.447Z,21440
2017-07-08T08:00:05.395Z,21856
2017-07-08T08:01:15.658Z,22240
2017-07-08T08:02:25.924Z,22624
2017-07-08T08:03:36.194Z,23360
2017-07-08T08:04:46.474Z,24160
2017-07-08T08:05:56.435Z,24736
2017-07-08T08:07:06.408Z,24928
2017-07-08T08:08:16.613Z,24992
2017-07-08T08:09:26.895Z,24800
2017-07-08T08:10:37.163Z,24352
2017-07-08T08:11:47.452Z,24032
2017-07-08T08:12:57.741Z,23968
2017-07-08T08:14:08.311Z,24192
2017-07-08T08:15:18.265Z,24480
2017-07-08T08:16:27.923Z,24896
2017-07-08T08:17:38.204Z,25536
2017-07-08T08:18:48.473Z,26208
2017-07-08T08:19:58.995Z,26624
2017-07-08T08:21:09.262Z,26816
2017-07-08T08:22:19.531Z,26624
2017-07-08T08:23:29.785Z,25952
2017-07-08T08:24:40.046Z,25408
2017-07-08T08:25:50.554Z,25504
2017-07-08T08:27:00.824Z,26432
2017-07-08T08:28:11.101Z,28032
2017-07-08T08:29:21.046Z,29568
2017-07-08T08:30:31.306Z,30304
2017-07-08T08:31:41.850Z,30496
2017-07-08T08:32:52.118Z,31168
2017-07-08T08:34:02.062Z,32032
2017-07-08T08:35:12.008Z,32768
2017-07-08T08:36:21.973Z,33152
2017-07-08T08:37:32.177Z,33312
2017-07-08T08:38:42.112Z,33216
2017-07-08T08:39:52.386Z,33024
2017-07-08T08:41:02.657Z,33312
2017-07-08T08:42:12.907Z,33600
2017-07-08T08:43:23.101Z,33728
2017-07-08T08:44:32.762Z,33760
2017-07-08T08:45:43.046Z,33568
2017-07-08T08:46:53.328Z,32800
2017-07-08T08:48:03.295Z,31840
2017-07-08T08:49:13.488Z,31840
2017-07-08T08:50:23.448Z,32704
2017-07-08T08:51:33.742Z,33856
2017-07-08T08:52:43.408Z,34528
2017-07-08T08:53:53.690Z,34720
2017-07-08T08:55:03.892Z,34528
2017-07-08T08:56:14.182Z,34048
2017-07-08T08:57:24.447Z,34272
2017-07-08T08:58:34.708Z,35296
2017-07-08T08:59:44.977Z,35456
2017-07-08T09:00:55.181Z,35040
2017-07-08T09:02:05.460Z,34720
2017-07-08T09:03:15.426Z,32512
2017-07-08T09:04:25.692Z,33248
2017-07-08T09:05:35.968Z,34112
2017-07-08T09:06:46.537Z,33984
2017-07-08T09:07:56.853Z,34080
2017-07-08T09:09:07.133Z,35520
2017-07-08T09:10:17.396Z,38560
2017-07-08T09:11:27.665Z,40608
2017-07-08T09:12:37.877Z,41792
2017-07-08T09:13:48.158Z,42976
2017-07-08T09:14:58.429Z,44288
2017-07-08T09:16:08.714Z,46016
2017-07-08T09:17:18.992Z,43456
2017-07-08T09:18:29.239Z,37120
2017-07-08T09:19:39.529Z,36032
2017-07-08T09:20:49.481Z,31008
2017-07-08T09:21:59.759Z,32704
2017-07-08T09:23:09.707Z,34752
2017-07-08T09:24:19.597Z,34368
2017-07-08T09:25:29.876Z,33472
2017-07-08T09:26:39.839Z,31904
2017-07-08T09:27:50.174Z,30432
2017-07-08T09:29:00.121Z,30272
2017-07-08T09:30:10.631Z,27328
2017-07-08T09:31:20.914Z,24672
2017-07-08T09:32:30.865Z,24192
2017-07-08T09:33:41.137Z,25440
2017-07-08T09:34:51.414Z,26528
2017-07-08T09:36:01.948Z,26528
2017-07-08T09:37:12.214Z,28288
2017-07-08T09:38:22.499Z,29920
2017-07-08T09:39:32.766Z,32064
2017-07-08T09:40:43.039Z,34016
2017-07-08T09:41:53.587Z,36704
2017-07-08T09:43:03.530Z,39392
2017-07-08T09:44:13.790Z,43552
2017-07-08T09:45:23.749Z,48352
2017-07-08T09:46:34.020Z,53088
2017-07-08T09:47:44.244Z,55008
2017-07-08T09:48:54.518Z,51776
2017-07-08T09:50:04.793Z,47136
2017-07-08T09:51:15.070Z,47520
2017-07-08T09:52:24.695Z,44512
2017-07-08T09:53:35.210Z,43584
2017-07-08T09:54:45.511Z,43264
2017-07-08T09:55:55.795Z,43776
2017-07-08T09:57:06.069Z,42208
2017-07-08T09:58:16.049Z,40448
2017-07-08T09:59:26.267Z,35360
2017-07-08T10:00:36.536Z,31072
2017-07-08T10:01:46.793Z,30080
2017-07-08T10:02:57.065Z,29120
2017-07-08T10:04:07.004Z,27808
2017-07-08T10:05:17.533Z,27296
2017-07-08T10:06:27.813Z,27712
2017-07-08T10:07:37.773Z,28128
2017-07-08T10:08:47.736Z,28480
2017-07-08T10:09:58.001Z,28960
2017-07-08T10:11:08.522Z,29824
2017-07-08T10:12:18.808Z,30880
2017-07-08T10:13:29.099Z,30944
2017-07-08T10:14:39.052Z,30304
2017-07-08T10:15:49.015Z,30656
2017-07-08T10:16:59.536Z,32960
2017-07-08T10:18:09.807Z,36416
2017-07-08T10:19:20.081Z,39200
2017-07-08T10:20:30.036Z,39648
2017-07-08T10:21:39.986Z,38432
2017-07-08T10:22:50.184Z,38048
2017-07-08T10:24:00.470Z,39552
2017-07-08T10:25:10.732Z,41408
2017-07-08T10:26:21.071Z,41408
2017-07-08T10:27:31.022Z,39968
2017-07-08T10:28:41.553Z,38144
2017-07-08T10:29:51.530Z,35840
2017-07-08T10:31:01.497Z,33472
2017-07-08T10:32:11.765Z,31552
2017-07-08T10:33:22.032Z,30272
2017-07-08T10:34:32.577Z,29792
2017-07-08T10:35:42.538Z,29632
2017-07-08T10:36:52.534Z,29440
2017-07-08T10:38:02.805Z,29248
2017-07-08T10:39:12.780Z,28736
2017-07-08T10:40:22.983Z,27872
2017-07-08T10:41:33.020Z,26880
2017-07-08T10:42:43.293Z,25568
2017-07-08T10:43:53.576Z,24128
2017-07-08T10:45:03.869Z,23104
2017-07-08T10:46:14.392Z,22752
2017-07-08T10:47:24.686Z,24416
2017-07-08T10:48:34.950Z,26336
2017-07-08T10:49:44.608Z,27872
2017-07-08T10:50:54.887Z,29408
2017-07-08T10:52:05.437Z,31840
2017-07-08T10:53:15.731Z,34784
2017-07-08T10:54:25.692Z,37856
2017-07-08T10:55:35.662Z,40384
2017-07-08T10:56:45.931Z,41728
2017-07-08T10:57:56.457Z,42496
2017-07-08T10:59:06.404Z,43200
2017-07-08T11:00:16.688Z,44224
2017-07-08T11:01:26.640Z,46624
2017-07-08T11:02:36.939Z,47264
2017-07-08T11:03:47.158Z,48448
2017-07-08T11:04:57.418Z,52000
2017-07-08T11:06:07.674Z,58624
2017-07-08T11:07:17.958Z,66528
2017-07-08T11:08:28.248Z,79904
2017-07-08T11:09:38.794Z,61024
2017-07-08T11:10:49.073Z,56704
2017-07-08T11:11:59.384Z,55008
2017-07-08T11:13:09.677Z,53824
2017-07-08T11:14:19.957Z,53152
2017-07-08T11:15:30.528Z,54240
2017-07-08T11:16:40.811Z,51424
2017-07-08T11:17:50.797Z,49056
2017-07-08T11:19:01.145Z,47840
2017-07-08T11:20:11.417Z,48352
2017-07-08T11:21:21.631Z,48160
2017-07-08T11:22:31.892Z,46176
2017-07-08T11:23:42.190Z,42368
2017-07-08T11:24:52.482Z,46624
2017-07-08T11:26:02.767Z,50880
2017-07-08T11:27:13.290Z,48704
2017-07-08T11:28:23.250Z,50016
2017-07-08T11:29:33.521Z,56352
2017-07-08T11:30:43.799Z,52224
2017-07-08T11:31:54.071Z,48544
2017-07-08T11:33:04.610Z,49952
2017-07-08T11:34:14.900Z,45632
2017-07-08T11:35:24.860Z,41600
2017-07-08T11:36:34.816Z,45824
2017-07-08T11:37:44.778Z,50848
2017-07-08T11:38:55.302Z,51808
2017-07-08T11:40:05.611Z,48768
2017-07-08T11:41:15.900Z,45664
2017-07-08T11:42:25.561Z,46304
2017-07-08T11:43:35.837Z,44160
2017-07-08T11:44:46.357Z,41184
2017-07-08T11:45:56.647Z,43104
2017-07-08T11:47:06.918Z,48000
2017-07-08T11:48:17.222Z,51264
2017-07-08T11:49:27.495Z,51328
2017-07-08T11:50:38.019Z,48320
2017-07-08T11:51:48.291Z,59744
2017-07-08T11:52:58.560Z,54336
2017-07-08T11:54:08.831Z,54144
2017-07-08T11:55:19.114Z,55968
2017-07-08T11:56:29.336Z,52608
2017-07-08T11:57:39.682Z,52576
2017-07-08T11:58:49.976Z,79680
2017-07-08T12:00:00.285Z,92576
2017-07-08T12:01:10.556Z,83904
2017-07-08T12:02:21.082Z,72320
2017-07-08T12:03:31.360Z,58144
2017-07-08T12:04:41.647Z,56320
2017-07-08T12:05:51.638Z,67840
2017-07-08T12:07:01.921Z,101632
2017-07-08T12:08:12.508Z,66464
2017-07-08T12:09:22.079Z,58752
2017-07-08T12:10:32.376Z,66528
2017-07-08T12:11:42.347Z,59424
2017-07-08T12:12:52.619Z,41856
2017-07-08T12:14:03.142Z,48416
2017-07-08T12:15:13.421Z,90304
2017-07-08T12:16:23.693Z,46912
2017-07-08T12:17:33.660Z,72064
2017-07-08T12:18:43.557Z,117120
2017-07-08T12:19:54.083Z,168160
2017-07-08T12:21:04.036Z,157856
2017-07-08T12:22:14.344Z,118368
2017-07-08T12:23:24.622Z,87936
2017-07-08T12:24:34.599Z,47584
2017-07-08T12:25:45.131Z,148768
2017-07-08T12:26:55.403Z,40032
2017-07-08T12:28:05.654Z,34016
2017-07-08T12:29:15.634Z,150336
2017-07-08T12:30:25.905Z,49760
2017-07-08T12:31:36.427Z,154496
2017-07-08T12:32:46.709Z,40896
2017-07-08T12:33:56.995Z,41600
2017-07-08T12:35:07.291Z,42432
2017-07-08T12:36:17.554Z,94720
2017-07-08T12:37:27.775Z,151328
2017-07-08T12:38:37.726Z,144512
2017-07-08T12:39:48.019Z,87680
2017-07-08T12:40:58.305Z,37792
2017-07-08T12:42:08.584Z,35904
2017-07-08T12:43:19.127Z,35840
2017-07-08T12:44:29.406Z,39776
2017-07-08T12:45:39.688Z,140384
2017-07-08T12:46:49.652Z,139872
2017-07-08T12:47:59.618Z,97888
2017-07-08T12:49:09.828Z,141952
2017-07-08T12:50:20.110Z,121024
2017-07-08T12:51:30.398Z,139072
2017-07-08T12:52:40.678Z,135840
2017-07-08T12:53:50.944Z,138112
2017-07-08T12:55:01.175Z,145120
2017-07-08T12:56:11.465Z,136032
2017-07-08T12:57:21.435Z,137280
2017-07-08T12:58:31.718Z,140736
2017-07-08T12:59:41.661Z,147904
2017-07-08T13:00:51.896Z,142016
2017-07-08T13:02:02.166Z,130496
2017-07-08T13:03:12.130Z,141536
2017-07-08T13:04:22.104Z,157248
2017-07-08T13:05:32.383Z,145504
2017-07-08T13:06:42.919Z,131424
2017-07-08T13:07:53.206Z,124896
2017-07-08T13:09:03.483Z,113728
2017-07-08T13:10:13.764Z,127872
2017-07-08T13:11:24.053Z,88896
2017-07-08T13:12:34.596Z,30016
2017-07-08T13:13:44.866Z,144512
2017-07-08T13:14:54.826Z,144032
2017-07-08T13:16:04.794Z,142048
2017-07-08T13:17:14.768Z,141888
2017-07-08T13:18:25.002Z,141888
2017-07-08T13:19:35.277Z,65248
2017-07-08T13:20:45.557Z,52096
2017-07-08T13:21:55.852Z,128128
2017-07-08T13:23:06.124Z,137344
2017-07-08T13:24:16.672Z,133824
2017-07-08T13:25:26.968Z,130432
2017-07-08T13:26:37.271Z,133600
2017-07-08T13:27:47.555Z,129344
2017-07-08T13:28:57.523Z,128448
2017-07-08T13:30:08.052Z,125440
2017-07-08T13:31:18.344Z,125888
2017-07-08T13:32:28.629Z,131488
2017-07-08T13:33:38.932Z,129472
2017-07-08T13:34:49.210Z,127264
2017-07-08T13:35:59.756Z,134816
2017-07-08T13:37:10.037Z,133856
2017-07-08T13:38:20.010Z,127456
2017-07-08T13:39:30.296Z,129088
2017-07-08T13:40:40.593Z,134016
2017-07-08T13:41:51.164Z,138528
2017-07-08T13:43:01.462Z,137536
2017-07-08T13:44:11.435Z,49632
2017-07-08T13:45:21.731Z,136480
2017-07-08T13:46:31.735Z,131680
2017-07-08T13:47:41.946Z,129888
2017-07-08T13:48:51.894Z,126464
2017-07-08T13:50:02.158Z,124192
2017-07-08T13:51:12.430Z,119968
2017-07-08T13:52:22.725Z,116640
2017-07-08T13:53:33.256Z,116448
2017-07-08T13:54:43.550Z,116608
2017-07-08T13:55:53.847Z,118848
2017-07-08T13:57:03.826Z,121408
2017-07-08T13:58:14.121Z,117888
2017-07-08T13:59:24.639Z,121024
2017-07-08T14:00:34.928Z,131360
2017-07-08T14:01:45.236Z,128640
2017-07-08T14:02:55.525Z,122464
2017-07-08T14:04:05.821Z,123008
2017-07-08T14:05:16.377Z,122304
2017-07-08T14:06:26.022Z,128800
2017-07-08T14:07:36.303Z,123584
2017-07-08T14:08:46.590Z,124544
2017-07-08T14:09:56.866Z,120832
2017-07-08T14:11:07.086Z,119296
2017-07-08T14:12:17.431Z,121344
2017-07-08T14:13:27.738Z,122080
2017-07-08T14:14:37.714Z,122144
2017-07-08T14:15:47.997Z,122080
2017-07-08T14:16:58.271Z,119392
2017-07-08T14:18:08.545Z,124032
2017-07-08T14:19:18.515Z,127232
2017-07-08T14:20:28.496Z,116128
2017-07-08T14:21:38.790Z,115104
2017-07-08T14:22:49.324Z,121376
2017-07-08T14:23:59.294Z,125664
2017-07-08T14:25:09.582Z,124256
2017-07-08T14:26:19.859Z,115296
2017-07-08T14:27:30.138Z,114144
2017-07-08T14:28:40.753Z,116992
2017-07-08T14:29:51.032Z,118496
2017-07-08T14:31:01.006Z,115168
2017-07-08T14:32:10.978Z,115584
2017-07-08T14:33:20.932Z,114720
2017-07-08T14:34:31.147Z,114720
2017-07-08T14:35:41.107Z,115264
2017-07-08T14:36:50.760Z,122944
2017-07-08T14:38:00.720Z,123904
2017-07-08T14:39:11.008Z,119104
2017-07-08T14:40:21.565Z,115040
2017-07-08T14:41:31.859Z,116864
2017-07-08T14:42:42.149Z,116160
2017-07-08T14:43:52.110Z,114496
2017-07-08T14:45:02.388Z,111840
2017-07-08T14:46:12.929Z,116736
2017-07-08T14:47:23.205Z,122752
2017-07-08T14:48:33.503Z,114208
2017-07-08T14:49:43.771Z,110688
2017-07-08T14:50:53.744Z,114528
2017-07-08T14:52:04.288Z,113248
2017-07-08T14:53:14.576Z,111008
2017-07-08T14:54:24.879Z,112352
2017-07-08T14:55:35.173Z,114592
2017-07-08T14:56:45.459Z,113184
2017-07-08T14:57:55.996Z,107168
2017-07-08T14:59:06.275Z,112416
2017-07-08T15:00:16.236Z,114368
2017-07-08T15:01:26.209Z,114400
2017-07-08T15:02:36.505Z,114304
2017-07-08T15:03:47.040Z,111968
2017-07-08T15:04:57.325Z,115200
2017-07-08T15:06:07.591Z,111648
2017-07-08T15:07:17.874Z,104736
2017-07-08T15:08:28.159Z,106496
2017-07-08T15:09:38.046Z,107232
2017-07-08T15:10:48.310Z,98784
2017-07-08T15:11:57.966Z,99904
2017-07-08T15:13:08.237Z,106592
2017-07-08T15:14:18.512Z,104832
2017-07-08T15:15:28.719Z,102528
2017-07-08T15:16:39.100Z,104576
2017-07-08T15:17:49.426Z,104608
2017-07-08T15:18:59.750Z,99776
2017-07-08T15:20:10.016Z,94368
2017-07-08T15:21:20.270Z,102272
2017-07-08T15:22:30.230Z,99776
2017-07-08T15:23:40.609Z,98944
2017-07-08T15:24:50.936Z,101344
2017-07-08T15:26:00.903Z,99008